<?xml version="1.0" encoding="utf-8"?>
<gpx xmlns:xsi="http://www.w3.org/2001/XMLSchema-instance" xmlns:xsd="http://www.w3.org/2001/XMLSchema" version="1.1" creator="Shapelink.com" xmlns="http://www.topografix.com/GPX/1/1" xmlns:gpxtpx="http://www.garmin.com/xmlschemas/TrackPointExtension/v1">
  <metadata>
    <name>Kører 8.80 km, 2014-09-09</name>
    <desc></desc>
    <author><name>Mathias Johansson</name></author> 
    <time>2014-09-09T19:52:11Z</time>
  </metadata>
  <trk>
    <name>Kører 8.80 km, 2014-09-09</name>
    <trkseg>
      <trkpt lat="59.327372094953" lon="13.506695500085">
        <ele>58.2</ele>
        <time>2014-09-09T19:52:11Z</time>
      </trkpt>
      <trkpt lat="59.327240834399" lon="13.506512104113">
        <ele>58</ele>
        <time>2014-09-09T19:52:16Z</time>
      </trkpt>
      <trkpt lat="59.327111501682" lon="13.506395092789">
        <ele>57</ele>
        <time>2014-09-09T19:52:21Z</time>
      </trkpt>
      <trkpt lat="59.326974792893" lon="13.506269615746">
        <ele>56.6</ele>
        <time>2014-09-09T19:52:26Z</time>
      </trkpt>
      <trkpt lat="59.326905139304" lon="13.50606811487">
        <ele>55.4</ele>
        <time>2014-09-09T19:52:31Z</time>
      </trkpt>
      <trkpt lat="59.326940175646" lon="13.505859908474">
        <ele>54.8</ele>
        <time>2014-09-09T19:52:35Z</time>
      </trkpt>
      <trkpt lat="59.327042267188" lon="13.50566243091">
        <ele>54.4</ele>
        <time>2014-09-09T19:52:40Z</time>
      </trkpt>
      <trkpt lat="59.327178556882" lon="13.505462187319">
        <ele>54.2</ele>
        <time>2014-09-09T19:52:46Z</time>
      </trkpt>
      <trkpt lat="59.327293891826" lon="13.505280048632">
        <ele>53.2</ele>
        <time>2014-09-09T19:52:51Z</time>
      </trkpt>
      <trkpt lat="59.327377962283" lon="13.505073686254">
        <ele>52.6</ele>
        <time>2014-09-09T19:52:56Z</time>
      </trkpt>
      <trkpt lat="59.327481478748" lon="13.50474796562">
        <ele>52.2</ele>
        <time>2014-09-09T19:53:03Z</time>
      </trkpt>
      <trkpt lat="59.327510228665" lon="13.504655429444">
        <ele>52.2</ele>
        <time>2014-09-09T19:53:05Z</time>
      </trkpt>
      <trkpt lat="59.327611649655" lon="13.504632043943">
        <ele>52</ele>
        <time>2014-09-09T19:53:09Z</time>
      </trkpt>
      <trkpt lat="59.327632772043" lon="13.50465660291">
        <ele>52</ele>
        <time>2014-09-09T19:53:10Z</time>
      </trkpt>
      <trkpt lat="59.327770738117" lon="13.504836310846">
        <ele>51.8</ele>
        <time>2014-09-09T19:53:16Z</time>
      </trkpt>
      <trkpt lat="59.327882971758" lon="13.504961284975">
        <ele>51.8</ele>
        <time>2014-09-09T19:53:21Z</time>
      </trkpt>
      <trkpt lat="59.327997552331" lon="13.505054491703">
        <ele>51.8</ele>
        <time>2014-09-09T19:53:26Z</time>
      </trkpt>
      <trkpt lat="59.328138368251" lon="13.5051855008">
        <ele>51.8</ele>
        <time>2014-09-09T19:53:30Z</time>
      </trkpt>
      <trkpt lat="59.32821724193" lon="13.505233445268">
        <ele>51.8</ele>
        <time>2014-09-09T19:53:33Z</time>
      </trkpt>
      <trkpt lat="59.328264012932" lon="13.505259345339">
        <ele>51.8</ele>
        <time>2014-09-09T19:53:35Z</time>
      </trkpt>
      <trkpt lat="59.328340204403" lon="13.505260686443">
        <ele>51.8</ele>
        <time>2014-09-09T19:53:39Z</time>
      </trkpt>
      <trkpt lat="59.328364260456" lon="13.505273846026">
        <ele>51.8</ele>
        <time>2014-09-09T19:53:40Z</time>
      </trkpt>
      <trkpt lat="59.328483618712" lon="13.50539756287">
        <ele>51.8</ele>
        <time>2014-09-09T19:53:45Z</time>
      </trkpt>
      <trkpt lat="59.328609933945" lon="13.505524548655">
        <ele>51.8</ele>
        <time>2014-09-09T19:53:51Z</time>
      </trkpt>
      <trkpt lat="59.328738344653" lon="13.505667879145">
        <ele>51.8</ele>
        <time>2014-09-09T19:53:57Z</time>
      </trkpt>
      <trkpt lat="59.32885342814" lon="13.505828895444">
        <ele>51.8</ele>
        <time>2014-09-09T19:54:02Z</time>
      </trkpt>
      <trkpt lat="59.328952502198" lon="13.505920258154">
        <ele>52.6</ele>
        <time>2014-09-09T19:54:06Z</time>
      </trkpt>
      <trkpt lat="59.329055934844" lon="13.506000305299">
        <ele>53</ele>
        <time>2014-09-09T19:54:10Z</time>
      </trkpt>
      <trkpt lat="59.329211251451" lon="13.50609242238">
        <ele>53.4</ele>
        <time>2014-09-09T19:54:16Z</time>
      </trkpt>
      <trkpt lat="59.329331615535" lon="13.506124608876">
        <ele>54</ele>
        <time>2014-09-09T19:54:21Z</time>
      </trkpt>
      <trkpt lat="59.329461367347" lon="13.50615025749">
        <ele>54.8</ele>
        <time>2014-09-09T19:54:26Z</time>
      </trkpt>
      <trkpt lat="59.329615259031" lon="13.50618797604">
        <ele>55.2</ele>
        <time>2014-09-09T19:54:32Z</time>
      </trkpt>
      <trkpt lat="59.329752386915" lon="13.506235501413">
        <ele>55.6</ele>
        <time>2014-09-09T19:54:37Z</time>
      </trkpt>
      <trkpt lat="59.329944332425" lon="13.506297359835">
        <ele>55.8</ele>
        <time>2014-09-09T19:54:44Z</time>
      </trkpt>
      <trkpt lat="59.330103504706" lon="13.506344885208">
        <ele>55.8</ele>
        <time>2014-09-09T19:54:50Z</time>
      </trkpt>
      <trkpt lat="59.330236525459" lon="13.506396517712">
        <ele>55.8</ele>
        <time>2014-09-09T19:54:55Z</time>
      </trkpt>
      <trkpt lat="59.330409527875" lon="13.506467260948">
        <ele>55.8</ele>
        <time>2014-09-09T19:55:02Z</time>
      </trkpt>
      <trkpt lat="59.330576998237" lon="13.506546972817">
        <ele>55.8</ele>
        <time>2014-09-09T19:55:08Z</time>
      </trkpt>
      <trkpt lat="59.330735332328" lon="13.506614363293">
        <ele>55.8</ele>
        <time>2014-09-09T19:55:14Z</time>
      </trkpt>
      <trkpt lat="59.330859971181" lon="13.506636742966">
        <ele>55.8</ele>
        <time>2014-09-09T19:55:19Z</time>
      </trkpt>
      <trkpt lat="59.331051916691" lon="13.506739840336">
        <ele>55.8</ele>
        <time>2014-09-09T19:55:26Z</time>
      </trkpt>
      <trkpt lat="59.331212262438" lon="13.506863221904">
        <ele>55.8</ele>
        <time>2014-09-09T19:55:32Z</time>
      </trkpt>
      <trkpt lat="59.33139398203" lon="13.506967744197">
        <ele>55.8</ele>
        <time>2014-09-09T19:55:39Z</time>
      </trkpt>
      <trkpt lat="59.331492134079" lon="13.507025076393">
        <ele>55.8</ele>
        <time>2014-09-09T19:55:43Z</time>
      </trkpt>
      <trkpt lat="59.331624400461" lon="13.50711417599">
        <ele>55.8</ele>
        <time>2014-09-09T19:55:48Z</time>
      </trkpt>
      <trkpt lat="59.331762031259" lon="13.507198330266">
        <ele>55.8</ele>
        <time>2014-09-09T19:55:53Z</time>
      </trkpt>
      <trkpt lat="59.331880467506" lon="13.507269492597">
        <ele>55.8</ele>
        <time>2014-09-09T19:55:58Z</time>
      </trkpt>
      <trkpt lat="59.331989767482" lon="13.507328920268">
        <ele>55.8</ele>
        <time>2014-09-09T19:56:02Z</time>
      </trkpt>
      <trkpt lat="59.332093116309" lon="13.507388934672">
        <ele>55.8</ele>
        <time>2014-09-09T19:56:06Z</time>
      </trkpt>
      <trkpt lat="59.332193950566" lon="13.507443919936">
        <ele>55.8</ele>
        <time>2014-09-09T19:56:10Z</time>
      </trkpt>
      <trkpt lat="59.33225815592" lon="13.507481135572">
        <ele>55.8</ele>
        <time>2014-09-09T19:56:13Z</time>
      </trkpt>
      <trkpt lat="59.332364354593" lon="13.507532768076">
        <ele>55.8</ele>
        <time>2014-09-09T19:56:17Z</time>
      </trkpt>
      <trkpt lat="59.332526209082" lon="13.507596386697">
        <ele>55.8</ele>
        <time>2014-09-09T19:56:23Z</time>
      </trkpt>
      <trkpt lat="59.332689656132" lon="13.507660005318">
        <ele>55.8</ele>
        <time>2014-09-09T19:56:29Z</time>
      </trkpt>
      <trkpt lat="59.332795184253" lon="13.507695712212">
        <ele>55.8</ele>
        <time>2014-09-09T19:56:33Z</time>
      </trkpt>
      <trkpt lat="59.332900628555" lon="13.507728820717">
        <ele>55.8</ele>
        <time>2014-09-09T19:56:37Z</time>
      </trkpt>
      <trkpt lat="59.333002384821" lon="13.507781626687">
        <ele>55.8</ele>
        <time>2014-09-09T19:56:41Z</time>
      </trkpt>
      <trkpt lat="59.333126688398" lon="13.50781238826">
        <ele>55.8</ele>
        <time>2014-09-09T19:56:46Z</time>
      </trkpt>
      <trkpt lat="59.333230791596" lon="13.507836444313">
        <ele>55.8</ele>
        <time>2014-09-09T19:56:50Z</time>
      </trkpt>
      <trkpt lat="59.333355849544" lon="13.507905511169">
        <ele>55.4</ele>
        <time>2014-09-09T19:56:55Z</time>
      </trkpt>
      <trkpt lat="59.333462886407" lon="13.507956473121">
        <ele>54.8</ele>
        <time>2014-09-09T19:56:59Z</time>
      </trkpt>
      <trkpt lat="59.333640666506" lon="13.508060408681">
        <ele>54.4</ele>
        <time>2014-09-09T19:57:05Z</time>
      </trkpt>
      <trkpt lat="59.333806544307" lon="13.508179934575">
        <ele>54</ele>
        <time>2014-09-09T19:57:11Z</time>
      </trkpt>
      <trkpt lat="59.333907546202" lon="13.508189322303">
        <ele>54</ele>
        <time>2014-09-09T19:57:15Z</time>
      </trkpt>
      <trkpt lat="59.334259334545" lon="13.508278086624">
        <ele>53</ele>
        <time>2014-09-09T19:57:27Z</time>
      </trkpt>
      <trkpt lat="59.33445253734" lon="13.50835721176">
        <ele>52.4</ele>
        <time>2014-09-09T19:57:34Z</time>
      </trkpt>
      <trkpt lat="59.33450785788" lon="13.508394427396">
        <ele>52.2</ele>
        <time>2014-09-09T19:57:36Z</time>
      </trkpt>
      <trkpt lat="59.334607015757" lon="13.50848461664">
        <ele>52</ele>
        <time>2014-09-09T19:57:40Z</time>
      </trkpt>
      <trkpt lat="59.334684213056" lon="13.508617218298">
        <ele>52</ele>
        <time>2014-09-09T19:57:44Z</time>
      </trkpt>
      <trkpt lat="59.33480373895" lon="13.508883762718">
        <ele>51.8</ele>
        <time>2014-09-09T19:57:51Z</time>
      </trkpt>
      <trkpt lat="59.334866100286" lon="13.509036564755">
        <ele>52.2</ele>
        <time>2014-09-09T19:57:55Z</time>
      </trkpt>
      <trkpt lat="59.33496131867" lon="13.50918450529">
        <ele>52.8</ele>
        <time>2014-09-09T19:58:00Z</time>
      </trkpt>
      <trkpt lat="59.335072378845" lon="13.50943596229">
        <ele>53.4</ele>
        <time>2014-09-09T19:58:07Z</time>
      </trkpt>
      <trkpt lat="59.335139601683" lon="13.50960443848">
        <ele>53.6</ele>
        <time>2014-09-09T19:58:11Z</time>
      </trkpt>
      <trkpt lat="59.335237586094" lon="13.509609216163">
        <ele>53.6</ele>
        <time>2014-09-09T19:58:15Z</time>
      </trkpt>
      <trkpt lat="59.335261474509" lon="13.509579125142">
        <ele>53.6</ele>
        <time>2014-09-09T19:58:16Z</time>
      </trkpt>
      <trkpt lat="59.335381084222" lon="13.509419701404">
        <ele>54.2</ele>
        <time>2014-09-09T19:58:21Z</time>
      </trkpt>
      <trkpt lat="59.335491557664" lon="13.509271760869">
        <ele>55</ele>
        <time>2014-09-09T19:58:26Z</time>
      </trkpt>
      <trkpt lat="59.335624159322" lon="13.509062716283">
        <ele>55.4</ele>
        <time>2014-09-09T19:58:32Z</time>
      </trkpt>
      <trkpt lat="59.335739829542" lon="13.5088400092">
        <ele>55.6</ele>
        <time>2014-09-09T19:58:38Z</time>
      </trkpt>
      <trkpt lat="59.335885423145" lon="13.508595090082">
        <ele>55.8</ele>
        <time>2014-09-09T19:58:44Z</time>
      </trkpt>
      <trkpt lat="59.335976869674" lon="13.508394678853">
        <ele>55.8</ele>
        <time>2014-09-09T19:58:49Z</time>
      </trkpt>
      <trkpt lat="59.335983407556" lon="13.508341789064">
        <ele>55.8</ele>
        <time>2014-09-09T19:58:50Z</time>
      </trkpt>
      <trkpt lat="59.33601324712" lon="13.508207846302">
        <ele>55.8</ele>
        <time>2014-09-09T19:58:53Z</time>
      </trkpt>
      <trkpt lat="59.336150375004" lon="13.508031072031">
        <ele>55.8</ele>
        <time>2014-09-09T19:58:59Z</time>
      </trkpt>
      <trkpt lat="59.336256657496" lon="13.507872402664">
        <ele>55.8</ele>
        <time>2014-09-09T19:59:04Z</time>
      </trkpt>
      <trkpt lat="59.336373333544" lon="13.507721779921">
        <ele>55.8</ele>
        <time>2014-09-09T19:59:09Z</time>
      </trkpt>
      <trkpt lat="59.33650694103" lon="13.507528325669">
        <ele>56.4</ele>
        <time>2014-09-09T19:59:15Z</time>
      </trkpt>
      <trkpt lat="59.336600231577" lon="13.507404860282">
        <ele>57</ele>
        <time>2014-09-09T19:59:19Z</time>
      </trkpt>
      <trkpt lat="59.336700982015" lon="13.507159689707">
        <ele>57.4</ele>
        <time>2014-09-09T19:59:25Z</time>
      </trkpt>
      <trkpt lat="59.336814472941" lon="13.506845703733">
        <ele>58.8</ele>
        <time>2014-09-09T19:59:32Z</time>
      </trkpt>
      <trkpt lat="59.336893765715" lon="13.506577231476">
        <ele>59.2</ele>
        <time>2014-09-09T19:59:38Z</time>
      </trkpt>
      <trkpt lat="59.336986134253" lon="13.506311022332">
        <ele>59.6</ele>
        <time>2014-09-09T19:59:44Z</time>
      </trkpt>
      <trkpt lat="59.337081771732" lon="13.506045399921">
        <ele>59.8</ele>
        <time>2014-09-09T19:59:50Z</time>
      </trkpt>
      <trkpt lat="59.337179253229" lon="13.505786566849">
        <ele>59.8</ele>
        <time>2014-09-09T19:59:56Z</time>
      </trkpt>
      <trkpt lat="59.337257791632" lon="13.505568050716">
        <ele>59.8</ele>
        <time>2014-09-09T20:00:01Z</time>
      </trkpt>
      <trkpt lat="59.33735267474" lon="13.505282898478">
        <ele>60</ele>
        <time>2014-09-09T20:00:07Z</time>
      </trkpt>
      <trkpt lat="59.33743397917" lon="13.505068321838">
        <ele>60</ele>
        <time>2014-09-09T20:00:12Z</time>
      </trkpt>
      <trkpt lat="59.337515367419" lon="13.504862713831">
        <ele>60</ele>
        <time>2014-09-09T20:00:17Z</time>
      </trkpt>
      <trkpt lat="59.337619135341" lon="13.504564234372">
        <ele>59.8</ele>
        <time>2014-09-09T20:00:24Z</time>
      </trkpt>
      <trkpt lat="59.337704630721" lon="13.504293499002">
        <ele>58.8</ele>
        <time>2014-09-09T20:00:30Z</time>
      </trkpt>
      <trkpt lat="59.337795490517" lon="13.504083197131">
        <ele>58.6</ele>
        <time>2014-09-09T20:00:35Z</time>
      </trkpt>
      <trkpt lat="59.33787319073" lon="13.503860490048">
        <ele>58.2</ele>
        <time>2014-09-09T20:00:40Z</time>
      </trkpt>
      <trkpt lat="59.337944855975" lon="13.503631161264">
        <ele>58.2</ele>
        <time>2014-09-09T20:00:45Z</time>
      </trkpt>
      <trkpt lat="59.338067147896" lon="13.50331885167">
        <ele>58</ele>
        <time>2014-09-09T20:00:52Z</time>
      </trkpt>
      <trkpt lat="59.338168652705" lon="13.503039147667">
        <ele>58</ele>
        <time>2014-09-09T20:00:58Z</time>
      </trkpt>
      <trkpt lat="59.33828055107" lon="13.502782829165">
        <ele>58</ele>
        <time>2014-09-09T20:01:04Z</time>
      </trkpt>
      <trkpt lat="59.338434358935" lon="13.502512596709">
        <ele>58</ele>
        <time>2014-09-09T20:01:11Z</time>
      </trkpt>
      <trkpt lat="59.338705261943" lon="13.502147229688">
        <ele>58</ele>
        <time>2014-09-09T20:01:23Z</time>
      </trkpt>
      <trkpt lat="59.338725546141" lon="13.502126777852">
        <ele>58</ele>
        <time>2014-09-09T20:01:24Z</time>
      </trkpt>
      <trkpt lat="59.338806347657" lon="13.502267845229">
        <ele>58</ele>
        <time>2014-09-09T20:01:28Z</time>
      </trkpt>
      <trkpt lat="59.338903829154" lon="13.502544867024">
        <ele>58</ele>
        <time>2014-09-09T20:01:34Z</time>
      </trkpt>
      <trkpt lat="59.339037939554" lon="13.502735974344">
        <ele>58</ele>
        <time>2014-09-09T20:01:40Z</time>
      </trkpt>
      <trkpt lat="59.339181270044" lon="13.502786768658">
        <ele>58</ele>
        <time>2014-09-09T20:01:46Z</time>
      </trkpt>
      <trkpt lat="59.339372880278" lon="13.502822894647">
        <ele>58</ele>
        <time>2014-09-09T20:01:53Z</time>
      </trkpt>
      <trkpt lat="59.339506655402" lon="13.502836640963">
        <ele>58</ele>
        <time>2014-09-09T20:01:58Z</time>
      </trkpt>
      <trkpt lat="59.339676640334" lon="13.502856757523">
        <ele>58</ele>
        <time>2014-09-09T20:02:04Z</time>
      </trkpt>
      <trkpt lat="59.339826843982" lon="13.502881987042">
        <ele>58</ele>
        <time>2014-09-09T20:02:09Z</time>
      </trkpt>
      <trkpt lat="59.340009653221" lon="13.502909563493">
        <ele>58</ele>
        <time>2014-09-09T20:02:16Z</time>
      </trkpt>
      <trkpt lat="59.340212411382" lon="13.502930685881">
        <ele>58</ele>
        <time>2014-09-09T20:02:23Z</time>
      </trkpt>
      <trkpt lat="59.340390191481" lon="13.503016013623">
        <ele>58</ele>
        <time>2014-09-09T20:02:30Z</time>
      </trkpt>
      <trkpt lat="59.340538215835" lon="13.503181723786">
        <ele>58</ele>
        <time>2014-09-09T20:02:36Z</time>
      </trkpt>
      <trkpt lat="59.340691604605" lon="13.503305943544">
        <ele>58</ele>
        <time>2014-09-09T20:02:42Z</time>
      </trkpt>
      <trkpt lat="59.340719767789" lon="13.503308458114">
        <ele>58</ele>
        <time>2014-09-09T20:02:43Z</time>
      </trkpt>
      <trkpt lat="59.340868462695" lon="13.503262106207">
        <ele>57.6</ele>
        <time>2014-09-09T20:02:49Z</time>
      </trkpt>
      <trkpt lat="59.340997208679" lon="13.503104694125">
        <ele>56.8</ele>
        <time>2014-09-09T20:02:55Z</time>
      </trkpt>
      <trkpt lat="59.341092091787" lon="13.502890620399">
        <ele>56.4</ele>
        <time>2014-09-09T20:03:00Z</time>
      </trkpt>
      <trkpt lat="59.341161326281" lon="13.502707894979">
        <ele>56.2</ele>
        <time>2014-09-09T20:03:04Z</time>
      </trkpt>
      <trkpt lat="59.341235841372" lon="13.502475883987">
        <ele>56.2</ele>
        <time>2014-09-09T20:03:09Z</time>
      </trkpt>
      <trkpt lat="59.341308260988" lon="13.502179583822">
        <ele>56</ele>
        <time>2014-09-09T20:03:15Z</time>
      </trkpt>
      <trkpt lat="59.341372214885" lon="13.501868866789">
        <ele>56</ele>
        <time>2014-09-09T20:03:21Z</time>
      </trkpt>
      <trkpt lat="59.341441197922" lon="13.50150668489">
        <ele>56</ele>
        <time>2014-09-09T20:03:28Z</time>
      </trkpt>
      <trkpt lat="59.341617636917" lon="13.501071245185">
        <ele>56</ele>
        <time>2014-09-09T20:03:37Z</time>
      </trkpt>
      <trkpt lat="59.341826430046" lon="13.501093792496">
        <ele>56</ele>
        <time>2014-09-09T20:03:44Z</time>
      </trkpt>
      <trkpt lat="59.341968167975" lon="13.501032939902">
        <ele>56</ele>
        <time>2014-09-09T20:03:49Z</time>
      </trkpt>
      <trkpt lat="59.342086604222" lon="13.50088390972">
        <ele>56</ele>
        <time>2014-09-09T20:03:54Z</time>
      </trkpt>
      <trkpt lat="59.342122311116" lon="13.500691293658">
        <ele>56</ele>
        <time>2014-09-09T20:03:58Z</time>
      </trkpt>
      <trkpt lat="59.34208090453" lon="13.50037093744">
        <ele>56</ele>
        <time>2014-09-09T20:04:04Z</time>
      </trkpt>
      <trkpt lat="59.342005215973" lon="13.500071368334">
        <ele>56</ele>
        <time>2014-09-09T20:04:10Z</time>
      </trkpt>
      <trkpt lat="59.34193003033" lon="13.499778672386">
        <ele>56</ele>
        <time>2014-09-09T20:04:16Z</time>
      </trkpt>
      <trkpt lat="59.341845121683" lon="13.499434846848">
        <ele>56</ele>
        <time>2014-09-09T20:04:23Z</time>
      </trkpt>
      <trkpt lat="59.341801954898" lon="13.499231166678">
        <ele>56</ele>
        <time>2014-09-09T20:04:27Z</time>
      </trkpt>
      <trkpt lat="59.341872614315" lon="13.499053218941">
        <ele>56</ele>
        <time>2014-09-09T20:04:31Z</time>
      </trkpt>
      <trkpt lat="59.342050645871" lon="13.498893962841">
        <ele>56</ele>
        <time>2014-09-09T20:04:38Z</time>
      </trkpt>
      <trkpt lat="59.342188947221" lon="13.498811401126">
        <ele>56</ele>
        <time>2014-09-09T20:04:43Z</time>
      </trkpt>
      <trkpt lat="59.3423767856" lon="13.498706878833">
        <ele>56</ele>
        <time>2014-09-09T20:04:50Z</time>
      </trkpt>
      <trkpt lat="59.342532353664" lon="13.498625742041">
        <ele>56.8</ele>
        <time>2014-09-09T20:04:56Z</time>
      </trkpt>
      <trkpt lat="59.342673337222" lon="13.498575115365">
        <ele>57.4</ele>
        <time>2014-09-09T20:05:01Z</time>
      </trkpt>
      <trkpt lat="59.342815745703" lon="13.498514598047">
        <ele>57.6</ele>
        <time>2014-09-09T20:05:06Z</time>
      </trkpt>
      <trkpt lat="59.34294759299" lon="13.498439496223">
        <ele>57.8</ele>
        <time>2014-09-09T20:05:11Z</time>
      </trkpt>
      <trkpt lat="59.343081871028" lon="13.498370261729">
        <ele>58.2</ele>
        <time>2014-09-09T20:05:16Z</time>
      </trkpt>
      <trkpt lat="59.343251604503" lon="13.498316198474">
        <ele>59</ele>
        <time>2014-09-09T20:05:22Z</time>
      </trkpt>
      <trkpt lat="59.343437682683" lon="13.498245371419">
        <ele>59.6</ele>
        <time>2014-09-09T20:05:29Z</time>
      </trkpt>
      <trkpt lat="59.343629628193" lon="13.498203461919">
        <ele>59.8</ele>
        <time>2014-09-09T20:05:36Z</time>
      </trkpt>
      <trkpt lat="59.343821657522" lon="13.498211340905">
        <ele>60</ele>
        <time>2014-09-09T20:05:43Z</time>
      </trkpt>
      <trkpt lat="59.344016955792" lon="13.498199270969">
        <ele>60</ele>
        <time>2014-09-09T20:05:50Z</time>
      </trkpt>
      <trkpt lat="59.344184929068" lon="13.498192816906">
        <ele>60</ele>
        <time>2014-09-09T20:05:56Z</time>
      </trkpt>
      <trkpt lat="59.344361451882" lon="13.498217711149">
        <ele>60</ele>
        <time>2014-09-09T20:06:02Z</time>
      </trkpt>
      <trkpt lat="59.344538645248" lon="13.498256854622">
        <ele>60</ele>
        <time>2014-09-09T20:06:08Z</time>
      </trkpt>
      <trkpt lat="59.34472036484" lon="13.498312594257">
        <ele>60</ele>
        <time>2014-09-09T20:06:14Z</time>
      </trkpt>
      <trkpt lat="59.344891439419" lon="13.498394066325">
        <ele>60</ele>
        <time>2014-09-09T20:06:20Z</time>
      </trkpt>
      <trkpt lat="59.345039882868" lon="13.498448464856">
        <ele>60</ele>
        <time>2014-09-09T20:06:25Z</time>
      </trkpt>
      <trkpt lat="59.345208694334" lon="13.498523901956">
        <ele>60</ele>
        <time>2014-09-09T20:06:31Z</time>
      </trkpt>
      <trkpt lat="59.345351689548" lon="13.498611744268">
        <ele>60</ele>
        <time>2014-09-09T20:06:36Z</time>
      </trkpt>
      <trkpt lat="59.345502228472" lon="13.498728504135">
        <ele>60</ele>
        <time>2014-09-09T20:06:42Z</time>
      </trkpt>
      <trkpt lat="59.345639607813" lon="13.498834116075">
        <ele>60</ele>
        <time>2014-09-09T20:06:47Z</time>
      </trkpt>
      <trkpt lat="59.34580833546" lon="13.498975267271">
        <ele>60</ele>
        <time>2014-09-09T20:06:53Z</time>
      </trkpt>
      <trkpt lat="59.345970525225" lon="13.499091691862">
        <ele>60</ele>
        <time>2014-09-09T20:06:59Z</time>
      </trkpt>
      <trkpt lat="59.346160291441" lon="13.499248098116">
        <ele>60</ele>
        <time>2014-09-09T20:07:06Z</time>
      </trkpt>
      <trkpt lat="59.346323319396" lon="13.499368713657">
        <ele>60</ele>
        <time>2014-09-09T20:07:12Z</time>
      </trkpt>
      <trkpt lat="59.346481988763" lon="13.499496034718">
        <ele>59</ele>
        <time>2014-09-09T20:07:18Z</time>
      </trkpt>
      <trkpt lat="59.346664378907" lon="13.499621008847">
        <ele>58.6</ele>
        <time>2014-09-09T20:07:24Z</time>
      </trkpt>
      <trkpt lat="59.34685942572" lon="13.499701475087">
        <ele>58.2</ele>
        <time>2014-09-09T20:07:31Z</time>
      </trkpt>
      <trkpt lat="59.347025135883" lon="13.499684962744">
        <ele>58.2</ele>
        <time>2014-09-09T20:07:37Z</time>
      </trkpt>
      <trkpt lat="59.347157486084" lon="13.499623020503">
        <ele>58</ele>
        <time>2014-09-09T20:07:42Z</time>
      </trkpt>
      <trkpt lat="59.347354041639" lon="13.499552947819">
        <ele>58</ele>
        <time>2014-09-09T20:07:49Z</time>
      </trkpt>
      <trkpt lat="59.34753249229" lon="13.499492849596">
        <ele>58</ele>
        <time>2014-09-09T20:07:55Z</time>
      </trkpt>
      <trkpt lat="59.347650090347" lon="13.499441971463">
        <ele>58.2</ele>
        <time>2014-09-09T20:07:59Z</time>
      </trkpt>
      <trkpt lat="59.347725108352" lon="13.499394781366">
        <ele>58.8</ele>
        <time>2014-09-09T20:08:03Z</time>
      </trkpt>
      <trkpt lat="59.347780009797" lon="13.499349938201">
        <ele>59</ele>
        <time>2014-09-09T20:08:05Z</time>
      </trkpt>
      <trkpt lat="59.347913198188" lon="13.499213732326">
        <ele>59.4</ele>
        <time>2014-09-09T20:08:10Z</time>
      </trkpt>
      <trkpt lat="59.348071364641" lon="13.499050285276">
        <ele>59.6</ele>
        <time>2014-09-09T20:08:16Z</time>
      </trkpt>
      <trkpt lat="59.34821980809" lon="13.498876696127">
        <ele>59.8</ele>
        <time>2014-09-09T20:08:22Z</time>
      </trkpt>
      <trkpt lat="59.348248641826" lon="13.49884375526">
        <ele>59.8</ele>
        <time>2014-09-09T20:08:23Z</time>
      </trkpt>
      <trkpt lat="59.348355846327" lon="13.498735209655">
        <ele>60</ele>
        <time>2014-09-09T20:08:27Z</time>
      </trkpt>
      <trkpt lat="59.348485095225" lon="13.498605541662">
        <ele>60</ele>
        <time>2014-09-09T20:08:32Z</time>
      </trkpt>
      <trkpt lat="59.348617864521" lon="13.498491044908">
        <ele>60</ele>
        <time>2014-09-09T20:08:37Z</time>
      </trkpt>
      <trkpt lat="59.348788771462" lon="13.498255513518">
        <ele>59.6</ele>
        <time>2014-09-09T20:08:44Z</time>
      </trkpt>
      <trkpt lat="59.348905698967" lon="13.498083265473">
        <ele>59</ele>
        <time>2014-09-09T20:08:49Z</time>
      </trkpt>
      <trkpt lat="59.349063697782" lon="13.49782200165">
        <ele>58.4</ele>
        <time>2014-09-09T20:08:56Z</time>
      </trkpt>
      <trkpt lat="59.349165956962" lon="13.497628547398">
        <ele>57.4</ele>
        <time>2014-09-09T20:09:01Z</time>
      </trkpt>
      <trkpt lat="59.349299815905" lon="13.497433500585">
        <ele>56.6</ele>
        <time>2014-09-09T20:09:07Z</time>
      </trkpt>
      <trkpt lat="59.349395118108" lon="13.49725370883">
        <ele>56.4</ele>
        <time>2014-09-09T20:09:12Z</time>
      </trkpt>
      <trkpt lat="59.349513470536" lon="13.497056231266">
        <ele>56.2</ele>
        <time>2014-09-09T20:09:18Z</time>
      </trkpt>
      <trkpt lat="59.349647664755" lon="13.496840984074">
        <ele>56</ele>
        <time>2014-09-09T20:09:24Z</time>
      </trkpt>
      <trkpt lat="59.349925860016" lon="13.496326167776">
        <ele>56</ele>
        <time>2014-09-09T20:09:37Z</time>
      </trkpt>
      <trkpt lat="59.350032477784" lon="13.496165570572">
        <ele>56</ele>
        <time>2014-09-09T20:09:42Z</time>
      </trkpt>
      <trkpt lat="59.350118978992" lon="13.496001117694">
        <ele>55.8</ele>
        <time>2014-09-09T20:09:47Z</time>
      </trkpt>
      <trkpt lat="59.350218388326" lon="13.495786205778">
        <ele>55.8</ele>
        <time>2014-09-09T20:09:53Z</time>
      </trkpt>
      <trkpt lat="59.350328107397" lon="13.495602977444">
        <ele>55.8</ele>
        <time>2014-09-09T20:09:58Z</time>
      </trkpt>
      <trkpt lat="59.350467749851" lon="13.495356381946">
        <ele>55.8</ele>
        <time>2014-09-09T20:10:04Z</time>
      </trkpt>
      <trkpt lat="59.350645949045" lon="13.495140045107">
        <ele>55.8</ele>
        <time>2014-09-09T20:10:11Z</time>
      </trkpt>
      <trkpt lat="59.350776203771" lon="13.494988835631">
        <ele>55.8</ele>
        <time>2014-09-09T20:10:16Z</time>
      </trkpt>
      <trkpt lat="59.350930095455" lon="13.494823963658">
        <ele>55.8</ele>
        <time>2014-09-09T20:10:22Z</time>
      </trkpt>
      <trkpt lat="59.351093877781" lon="13.49465951078">
        <ele>55.8</ele>
        <time>2014-09-09T20:10:28Z</time>
      </trkpt>
      <trkpt lat="59.351182725921" lon="13.494505200001">
        <ele>55.8</ele>
        <time>2014-09-09T20:10:32Z</time>
      </trkpt>
      <trkpt lat="59.35132111109" lon="13.49420018266">
        <ele>55.8</ele>
        <time>2014-09-09T20:10:39Z</time>
      </trkpt>
      <trkpt lat="59.351413228171" lon="13.493974038998">
        <ele>55.8</ele>
        <time>2014-09-09T20:10:44Z</time>
      </trkpt>
      <trkpt lat="59.351502411587" lon="13.493749823173">
        <ele>55.8</ele>
        <time>2014-09-09T20:10:49Z</time>
      </trkpt>
      <trkpt lat="59.351660158945" lon="13.493477411423">
        <ele>55.8</ele>
        <time>2014-09-09T20:10:56Z</time>
      </trkpt>
      <trkpt lat="59.351788988748" lon="13.493281610239">
        <ele>55.2</ele>
        <time>2014-09-09T20:11:02Z</time>
      </trkpt>
      <trkpt lat="59.351937599835" lon="13.493010455774">
        <ele>54.4</ele>
        <time>2014-09-09T20:11:09Z</time>
      </trkpt>
      <trkpt lat="59.352024268681" lon="13.492859330117">
        <ele>54.2</ele>
        <time>2014-09-09T20:11:13Z</time>
      </trkpt>
      <trkpt lat="59.352125186757" lon="13.492662690743">
        <ele>54</ele>
        <time>2014-09-09T20:11:18Z</time>
      </trkpt>
      <trkpt lat="59.352260386804" lon="13.492437972004">
        <ele>54</ele>
        <time>2014-09-09T20:11:24Z</time>
      </trkpt>
      <trkpt lat="59.35239147972" lon="13.492230100884">
        <ele>54</ele>
        <time>2014-09-09T20:11:30Z</time>
      </trkpt>
      <trkpt lat="59.35249625347" lon="13.492044274161">
        <ele>53.8</ele>
        <time>2014-09-09T20:11:35Z</time>
      </trkpt>
      <trkpt lat="59.352614186803" lon="13.491877893446">
        <ele>53.8</ele>
        <time>2014-09-09T20:11:40Z</time>
      </trkpt>
      <trkpt lat="59.35274687228" lon="13.491675722018">
        <ele>53.8</ele>
        <time>2014-09-09T20:11:46Z</time>
      </trkpt>
      <trkpt lat="59.352867906916" lon="13.491516968832">
        <ele>53.8</ele>
        <time>2014-09-09T20:11:51Z</time>
      </trkpt>
      <trkpt lat="59.353018194383" lon="13.491318904535">
        <ele>53.8</ele>
        <time>2014-09-09T20:11:57Z</time>
      </trkpt>
      <trkpt lat="59.353166973108" lon="13.491139280418">
        <ele>53.8</ele>
        <time>2014-09-09T20:12:03Z</time>
      </trkpt>
      <trkpt lat="59.353315332738" lon="13.490953788971">
        <ele>53.8</ele>
        <time>2014-09-09T20:12:09Z</time>
      </trkpt>
      <trkpt lat="59.353434271899" lon="13.490798053269">
        <ele>53.8</ele>
        <time>2014-09-09T20:12:14Z</time>
      </trkpt>
      <trkpt lat="59.353567879385" lon="13.490656482978">
        <ele>54.2</ele>
        <time>2014-09-09T20:12:19Z</time>
      </trkpt>
      <trkpt lat="59.353728895684" lon="13.490507620434">
        <ele>55</ele>
        <time>2014-09-09T20:12:25Z</time>
      </trkpt>
      <trkpt lat="59.353859318048" lon="13.490369151446">
        <ele>55.4</ele>
        <time>2014-09-09T20:12:30Z</time>
      </trkpt>
      <trkpt lat="59.353989405136" lon="13.490235208684">
        <ele>55.6</ele>
        <time>2014-09-09T20:12:35Z</time>
      </trkpt>
      <trkpt lat="59.354130640151" lon="13.490093973669">
        <ele>55.8</ele>
        <time>2014-09-09T20:12:41Z</time>
      </trkpt>
      <trkpt lat="59.354296853228" lon="13.489917786131">
        <ele>55.8</ele>
        <time>2014-09-09T20:12:48Z</time>
      </trkpt>
      <trkpt lat="59.354431466542" lon="13.489777808401">
        <ele>55.8</ele>
        <time>2014-09-09T20:12:53Z</time>
      </trkpt>
      <trkpt lat="59.354590219728" lon="13.489612852609">
        <ele>55.8</ele>
        <time>2014-09-09T20:12:59Z</time>
      </trkpt>
      <trkpt lat="59.354773699519" lon="13.489437335623">
        <ele>55.8</ele>
        <time>2014-09-09T20:13:06Z</time>
      </trkpt>
      <trkpt lat="59.354935805465" lon="13.489311523304">
        <ele>55.8</ele>
        <time>2014-09-09T20:13:12Z</time>
      </trkpt>
      <trkpt lat="59.355093636642" lon="13.489194009066">
        <ele>55.8</ele>
        <time>2014-09-09T20:13:18Z</time>
      </trkpt>
      <trkpt lat="59.3551759469" lon="13.489153021575">
        <ele>56</ele>
        <time>2014-09-09T20:13:21Z</time>
      </trkpt>
      <trkpt lat="59.355450957039" lon="13.48903777045">
        <ele>57.2</ele>
        <time>2014-09-09T20:13:31Z</time>
      </trkpt>
      <trkpt lat="59.355556652798" lon="13.488983455738">
        <ele>57.4</ele>
        <time>2014-09-09T20:13:35Z</time>
      </trkpt>
      <trkpt lat="59.355582301412" lon="13.488961411341">
        <ele>57.6</ele>
        <time>2014-09-09T20:13:36Z</time>
      </trkpt>
      <trkpt lat="59.355754130362" lon="13.488855128849">
        <ele>57.6</ele>
        <time>2014-09-09T20:13:42Z</time>
      </trkpt>
      <trkpt lat="59.355924869665" lon="13.488788073649">
        <ele>57.8</ele>
        <time>2014-09-09T20:13:48Z</time>
      </trkpt>
      <trkpt lat="59.356070547087" lon="13.488740380638">
        <ele>57.8</ele>
        <time>2014-09-09T20:13:53Z</time>
      </trkpt>
      <trkpt lat="59.356183702737" lon="13.488694783102">
        <ele>57.8</ele>
        <time>2014-09-09T20:13:57Z</time>
      </trkpt>
      <trkpt lat="59.35632259082" lon="13.488632589404">
        <ele>57.8</ele>
        <time>2014-09-09T20:14:02Z</time>
      </trkpt>
      <trkpt lat="59.356470028441" lon="13.488620770925">
        <ele>57.8</ele>
        <time>2014-09-09T20:14:07Z</time>
      </trkpt>
      <trkpt lat="59.356647976178" lon="13.488570982439">
        <ele>57.8</ele>
        <time>2014-09-09T20:14:13Z</time>
      </trkpt>
      <trkpt lat="59.356816871463" lon="13.488510129845">
        <ele>57.8</ele>
        <time>2014-09-09T20:14:19Z</time>
      </trkpt>
      <trkpt lat="59.357015103398" lon="13.488438716057">
        <ele>57.8</ele>
        <time>2014-09-09T20:14:26Z</time>
      </trkpt>
      <trkpt lat="59.357185758882" lon="13.48839487872">
        <ele>57.8</ele>
        <time>2014-09-09T20:14:32Z</time>
      </trkpt>
      <trkpt lat="59.357368232845" lon="13.488395800729">
        <ele>57.8</ele>
        <time>2014-09-09T20:14:38Z</time>
      </trkpt>
      <trkpt lat="59.357539558881" lon="13.488494036597">
        <ele>57.8</ele>
        <time>2014-09-09T20:14:44Z</time>
      </trkpt>
      <trkpt lat="59.357712393659" lon="13.488578023235">
        <ele>57.8</ele>
        <time>2014-09-09T20:14:50Z</time>
      </trkpt>
      <trkpt lat="59.357885731351" lon="13.488649604661">
        <ele>57.8</ele>
        <time>2014-09-09T20:14:56Z</time>
      </trkpt>
      <trkpt lat="59.358019171199" lon="13.488720766992">
        <ele>57.8</ele>
        <time>2014-09-09T20:15:01Z</time>
      </trkpt>
      <trkpt lat="59.358179014032" lon="13.488806513829">
        <ele>57.8</ele>
        <time>2014-09-09T20:15:07Z</time>
      </trkpt>
      <trkpt lat="59.35834095234" lon="13.488903743869">
        <ele>57.8</ele>
        <time>2014-09-09T20:15:13Z</time>
      </trkpt>
      <trkpt lat="59.358506830141" lon="13.489016228967">
        <ele>57.8</ele>
        <time>2014-09-09T20:15:19Z</time>
      </trkpt>
      <trkpt lat="59.358688046819" lon="13.48917523361">
        <ele>57.8</ele>
        <time>2014-09-09T20:15:26Z</time>
      </trkpt>
      <trkpt lat="59.35883967539" lon="13.48932526962">
        <ele>57.8</ele>
        <time>2014-09-09T20:15:32Z</time>
      </trkpt>
      <trkpt lat="59.358984179346" lon="13.489493661991">
        <ele>57.8</ele>
        <time>2014-09-09T20:15:38Z</time>
      </trkpt>
      <trkpt lat="59.359104627249" lon="13.489638249766">
        <ele>57.8</ele>
        <time>2014-09-09T20:15:43Z</time>
      </trkpt>
      <trkpt lat="59.359218704908" lon="13.489799517522">
        <ele>57.8</ele>
        <time>2014-09-09T20:15:48Z</time>
      </trkpt>
      <trkpt lat="59.359382068139" lon="13.490019542397">
        <ele>57.8</ele>
        <time>2014-09-09T20:15:55Z</time>
      </trkpt>
      <trkpt lat="59.3594842435" lon="13.49021458921">
        <ele>57.4</ele>
        <time>2014-09-09T20:16:00Z</time>
      </trkpt>
      <trkpt lat="59.359598740254" lon="13.490413324059">
        <ele>56.8</ele>
        <time>2014-09-09T20:16:05Z</time>
      </trkpt>
      <trkpt lat="59.35970804023" lon="13.490609209062">
        <ele>56.2</ele>
        <time>2014-09-09T20:16:10Z</time>
      </trkpt>
      <trkpt lat="59.359771575032" lon="13.490730830431">
        <ele>55.6</ele>
        <time>2014-09-09T20:16:13Z</time>
      </trkpt>
      <trkpt lat="59.359895375695" lon="13.490975078997">
        <ele>54.6</ele>
        <time>2014-09-09T20:16:19Z</time>
      </trkpt>
      <trkpt lat="59.359995036486" lon="13.491188649809">
        <ele>54</ele>
        <time>2014-09-09T20:16:24Z</time>
      </trkpt>
      <trkpt lat="59.36009025487" lon="13.491400460422">
        <ele>53</ele>
        <time>2014-09-09T20:16:29Z</time>
      </trkpt>
      <trkpt lat="59.360190167118" lon="13.491669603231">
        <ele>52.4</ele>
        <time>2014-09-09T20:16:35Z</time>
      </trkpt>
      <trkpt lat="59.360298628904" lon="13.491987696336">
        <ele>52</ele>
        <time>2014-09-09T20:16:42Z</time>
      </trkpt>
      <trkpt lat="59.360378089316" lon="13.492286511071">
        <ele>51.8</ele>
        <time>2014-09-09T20:16:48Z</time>
      </trkpt>
      <trkpt lat="59.360452688226" lon="13.4925791232">
        <ele>51.8</ele>
        <time>2014-09-09T20:16:54Z</time>
      </trkpt>
      <trkpt lat="59.360530053163" lon="13.492887828577">
        <ele>51.8</ele>
        <time>2014-09-09T20:17:00Z</time>
      </trkpt>
      <trkpt lat="59.360607837195" lon="13.493195360488">
        <ele>52.6</ele>
        <time>2014-09-09T20:17:06Z</time>
      </trkpt>
      <trkpt lat="59.36067950244" lon="13.493510519928">
        <ele>53.2</ele>
        <time>2014-09-09T20:17:12Z</time>
      </trkpt>
      <trkpt lat="59.36075996868" lon="13.493813609432">
        <ele>53.4</ele>
        <time>2014-09-09T20:17:18Z</time>
      </trkpt>
      <trkpt lat="59.360843117128" lon="13.494167996164">
        <ele>54.6</ele>
        <time>2014-09-09T20:17:25Z</time>
      </trkpt>
      <trkpt lat="59.360919979151" lon="13.494468738736">
        <ele>55.2</ele>
        <time>2014-09-09T20:17:31Z</time>
      </trkpt>
      <trkpt lat="59.360990554749" lon="13.494782808529">
        <ele>55.4</ele>
        <time>2014-09-09T20:17:37Z</time>
      </trkpt>
      <trkpt lat="59.361060459795" lon="13.495101153091">
        <ele>55.6</ele>
        <time>2014-09-09T20:17:43Z</time>
      </trkpt>
      <trkpt lat="59.361134723429" lon="13.49541555816">
        <ele>55.6</ele>
        <time>2014-09-09T20:17:49Z</time>
      </trkpt>
      <trkpt lat="59.361205299027" lon="13.495719988768">
        <ele>55.8</ele>
        <time>2014-09-09T20:17:55Z</time>
      </trkpt>
      <trkpt lat="59.361281825774" lon="13.496077309165">
        <ele>55.8</ele>
        <time>2014-09-09T20:18:02Z</time>
      </trkpt>
      <trkpt lat="59.36134921625" lon="13.496389451121">
        <ele>55.8</ele>
        <time>2014-09-09T20:18:08Z</time>
      </trkpt>
      <trkpt lat="59.361415600898" lon="13.496695139014">
        <ele>55.8</ele>
        <time>2014-09-09T20:18:14Z</time>
      </trkpt>
      <trkpt lat="59.361477794596" lon="13.497003592934">
        <ele>55.8</ele>
        <time>2014-09-09T20:18:20Z</time>
      </trkpt>
      <trkpt lat="59.361528840367" lon="13.497256726314">
        <ele>55.8</ele>
        <time>2014-09-09T20:18:25Z</time>
      </trkpt>
      <trkpt lat="59.361583993269" lon="13.4975160623">
        <ele>55.8</ele>
        <time>2014-09-09T20:18:30Z</time>
      </trkpt>
      <trkpt lat="59.361646103148" lon="13.497789060783">
        <ele>55.8</ele>
        <time>2014-09-09T20:18:35Z</time>
      </trkpt>
      <trkpt lat="59.361721875524" lon="13.498099945454">
        <ele>55.8</ele>
        <time>2014-09-09T20:18:41Z</time>
      </trkpt>
      <trkpt lat="59.361795803882" lon="13.498347882056">
        <ele>55.8</ele>
        <time>2014-09-09T20:18:46Z</time>
      </trkpt>
      <trkpt lat="59.361868223498" lon="13.49866270622">
        <ele>55.8</ele>
        <time>2014-09-09T20:18:52Z</time>
      </trkpt>
      <trkpt lat="59.361957323095" lon="13.49901977516">
        <ele>55.8</ele>
        <time>2014-09-09T20:18:59Z</time>
      </trkpt>
      <trkpt lat="59.362047344701" lon="13.499374664806">
        <ele>55.8</ele>
        <time>2014-09-09T20:19:06Z</time>
      </trkpt>
      <trkpt lat="59.362151615537" lon="13.499715640498">
        <ele>56</ele>
        <time>2014-09-09T20:19:13Z</time>
      </trkpt>
      <trkpt lat="59.362246247188" lon="13.499990063904">
        <ele>56.8</ele>
        <time>2014-09-09T20:19:19Z</time>
      </trkpt>
      <trkpt lat="59.362376082819" lon="13.500316790366">
        <ele>57.4</ele>
        <time>2014-09-09T20:19:26Z</time>
      </trkpt>
      <trkpt lat="59.362486053347" lon="13.500598170749">
        <ele>58</ele>
        <time>2014-09-09T20:19:32Z</time>
      </trkpt>
      <trkpt lat="59.362600801558" lon="13.500868487024">
        <ele>58.8</ele>
        <time>2014-09-09T20:19:38Z</time>
      </trkpt>
      <trkpt lat="59.362717729063" lon="13.5011118974">
        <ele>59.4</ele>
        <time>2014-09-09T20:19:44Z</time>
      </trkpt>
      <trkpt lat="59.36286298739" lon="13.501398306923">
        <ele>59.6</ele>
        <time>2014-09-09T20:19:51Z</time>
      </trkpt>
      <trkpt lat="59.363009083907" lon="13.501679100573">
        <ele>59.8</ele>
        <time>2014-09-09T20:19:58Z</time>
      </trkpt>
      <trkpt lat="59.363168591464" lon="13.501941202586">
        <ele>59.8</ele>
        <time>2014-09-09T20:20:05Z</time>
      </trkpt>
      <trkpt lat="59.363296163982" lon="13.502174051768">
        <ele>59.8</ele>
        <time>2014-09-09T20:20:11Z</time>
      </trkpt>
      <trkpt lat="59.363406385967" lon="13.502350323125">
        <ele>59.8</ele>
        <time>2014-09-09T20:20:16Z</time>
      </trkpt>
      <trkpt lat="59.363550973742" lon="13.502609072378">
        <ele>59.6</ele>
        <time>2014-09-09T20:20:23Z</time>
      </trkpt>
      <trkpt lat="59.36365926789" lon="13.502801520802">
        <ele>58.8</ele>
        <time>2014-09-09T20:20:28Z</time>
      </trkpt>
      <trkpt lat="59.363800502905" lon="13.503014169605">
        <ele>58.4</ele>
        <time>2014-09-09T20:20:34Z</time>
      </trkpt>
      <trkpt lat="59.363948024345" lon="13.503220364345">
        <ele>58</ele>
        <time>2014-09-09T20:20:40Z</time>
      </trkpt>
      <trkpt lat="59.364062018185" lon="13.50340686162">
        <ele>58</ele>
        <time>2014-09-09T20:20:45Z</time>
      </trkpt>
      <trkpt lat="59.364201828277" lon="13.503628479056">
        <ele>57.8</ele>
        <time>2014-09-09T20:20:51Z</time>
      </trkpt>
      <trkpt lat="59.364342979473" lon="13.503858562211">
        <ele>57.8</ele>
        <time>2014-09-09T20:20:57Z</time>
      </trkpt>
      <trkpt lat="59.364499218089" lon="13.504128291753">
        <ele>57.8</ele>
        <time>2014-09-09T20:21:04Z</time>
      </trkpt>
      <trkpt lat="59.364626120055" lon="13.504357871994">
        <ele>57.8</ele>
        <time>2014-09-09T20:21:10Z</time>
      </trkpt>
      <trkpt lat="59.36477741335" lon="13.504629026459">
        <ele>57.8</ele>
        <time>2014-09-09T20:21:17Z</time>
      </trkpt>
      <trkpt lat="59.364914289777" lon="13.504853074646">
        <ele>57.8</ele>
        <time>2014-09-09T20:21:23Z</time>
      </trkpt>
      <trkpt lat="59.365012693283" lon="13.505036135342">
        <ele>57.8</ele>
        <time>2014-09-09T20:21:28Z</time>
      </trkpt>
      <trkpt lat="59.365158622162" lon="13.505291280378">
        <ele>57.8</ele>
        <time>2014-09-09T20:21:35Z</time>
      </trkpt>
      <trkpt lat="59.365274627658" lon="13.505513903642">
        <ele>57.8</ele>
        <time>2014-09-09T20:21:41Z</time>
      </trkpt>
      <trkpt lat="59.365429189894" lon="13.505770473601">
        <ele>57.8</ele>
        <time>2014-09-09T20:21:48Z</time>
      </trkpt>
      <trkpt lat="59.365564306122" lon="13.505982787128">
        <ele>57.8</ele>
        <time>2014-09-09T20:21:54Z</time>
      </trkpt>
      <trkpt lat="59.365725573878" lon="13.506228795893">
        <ele>58.2</ele>
        <time>2014-09-09T20:22:01Z</time>
      </trkpt>
      <trkpt lat="59.365833197474" lon="13.50641680191">
        <ele>58.8</ele>
        <time>2014-09-09T20:22:06Z</time>
      </trkpt>
      <trkpt lat="59.365964122752" lon="13.506644873409">
        <ele>59.2</ele>
        <time>2014-09-09T20:22:12Z</time>
      </trkpt>
      <trkpt lat="59.366109548717" lon="13.506928265448">
        <ele>59.8</ele>
        <time>2014-09-09T20:22:19Z</time>
      </trkpt>
      <trkpt lat="59.366238881434" lon="13.50715021816">
        <ele>60.8</ele>
        <time>2014-09-09T20:22:25Z</time>
      </trkpt>
      <trkpt lat="59.366392437842" lon="13.507410140879">
        <ele>61.4</ele>
        <time>2014-09-09T20:22:32Z</time>
      </trkpt>
      <trkpt lat="59.366553370322" lon="13.507671237064">
        <ele>61.6</ele>
        <time>2014-09-09T20:22:39Z</time>
      </trkpt>
      <trkpt lat="59.36670441216" lon="13.507920263313">
        <ele>61.8</ele>
        <time>2014-09-09T20:22:46Z</time>
      </trkpt>
      <trkpt lat="59.366837935827" lon="13.508140874921">
        <ele>61.8</ele>
        <time>2014-09-09T20:22:52Z</time>
      </trkpt>
      <trkpt lat="59.366999035945" lon="13.508392248102">
        <ele>61.8</ele>
        <time>2014-09-09T20:22:59Z</time>
      </trkpt>
      <trkpt lat="59.367126776101" lon="13.508603723439">
        <ele>62.8</ele>
        <time>2014-09-09T20:23:05Z</time>
      </trkpt>
      <trkpt lat="59.367255186809" lon="13.508800111356">
        <ele>63.4</ele>
        <time>2014-09-09T20:23:11Z</time>
      </trkpt>
      <trkpt lat="59.367381166766" lon="13.509006389915">
        <ele>63.6</ele>
        <time>2014-09-09T20:23:17Z</time>
      </trkpt>
      <trkpt lat="59.367512678777" lon="13.509228342627">
        <ele>63.8</ele>
        <time>2014-09-09T20:23:23Z</time>
      </trkpt>
      <trkpt lat="59.367662966244" lon="13.509480302541">
        <ele>63.8</ele>
        <time>2014-09-09T20:23:30Z</time>
      </trkpt>
      <trkpt lat="59.367789197658" lon="13.509683815073">
        <ele>63.8</ele>
        <time>2014-09-09T20:23:36Z</time>
      </trkpt>
      <trkpt lat="59.36791475852" lon="13.509898475532">
        <ele>63.8</ele>
        <time>2014-09-09T20:23:42Z</time>
      </trkpt>
      <trkpt lat="59.368019448451" lon="13.510068544283">
        <ele>63.8</ele>
        <time>2014-09-09T20:23:47Z</time>
      </trkpt>
      <trkpt lat="59.368158923267" lon="13.510259651603">
        <ele>63.8</ele>
        <time>2014-09-09T20:23:53Z</time>
      </trkpt>
      <trkpt lat="59.368336451909" lon="13.510462577402">
        <ele>63.8</ele>
        <time>2014-09-09T20:24:00Z</time>
      </trkpt>
      <trkpt lat="59.368466538997" lon="13.510570620093">
        <ele>63.8</ele>
        <time>2014-09-09T20:24:05Z</time>
      </trkpt>
      <trkpt lat="59.368637529757" lon="13.510629041936">
        <ele>63.2</ele>
        <time>2014-09-09T20:24:11Z</time>
      </trkpt>
      <trkpt lat="59.368786643758" lon="13.510632143239">
        <ele>62.6</ele>
        <time>2014-09-09T20:24:16Z</time>
      </trkpt>
      <trkpt lat="59.368983869865" lon="13.510598448001">
        <ele>61</ele>
        <time>2014-09-09T20:24:23Z</time>
      </trkpt>
      <trkpt lat="59.369159973584" lon="13.510532817724">
        <ele>60.4</ele>
        <time>2014-09-09T20:24:29Z</time>
      </trkpt>
      <trkpt lat="59.369367509428" lon="13.510500379771">
        <ele>60</ele>
        <time>2014-09-09T20:24:36Z</time>
      </trkpt>
      <trkpt lat="59.369547301183" lon="13.510493338975">
        <ele>59.8</ele>
        <time>2014-09-09T20:24:42Z</time>
      </trkpt>
      <trkpt lat="59.369727344395" lon="13.5105163892">
        <ele>60</ele>
        <time>2014-09-09T20:24:48Z</time>
      </trkpt>
      <trkpt lat="59.369907639064" lon="13.510537595407">
        <ele>60.8</ele>
        <time>2014-09-09T20:24:54Z</time>
      </trkpt>
      <trkpt lat="59.370080976756" lon="13.510524100548">
        <ele>61.6</ele>
        <time>2014-09-09T20:25:00Z</time>
      </trkpt>
      <trkpt lat="59.370252554249" lon="13.510466013981">
        <ele>62.6</ele>
        <time>2014-09-09T20:25:06Z</time>
      </trkpt>
      <trkpt lat="59.370282058537" lon="13.510444975412">
        <ele>62.6</ele>
        <time>2014-09-09T20:25:07Z</time>
      </trkpt>
      <trkpt lat="59.370424886113" lon="13.510261327983">
        <ele>63.2</ele>
        <time>2014-09-09T20:25:13Z</time>
      </trkpt>
      <trkpt lat="59.370532342071" lon="13.510097545657">
        <ele>63.4</ele>
        <time>2014-09-09T20:25:18Z</time>
      </trkpt>
      <trkpt lat="59.370651029775" lon="13.50986511557">
        <ele>63.6</ele>
        <time>2014-09-09T20:25:24Z</time>
      </trkpt>
      <trkpt lat="59.370752702222" lon="13.509672918603">
        <ele>63.6</ele>
        <time>2014-09-09T20:25:29Z</time>
      </trkpt>
      <trkpt lat="59.370858649438" lon="13.509470579537">
        <ele>63.6</ele>
        <time>2014-09-09T20:25:34Z</time>
      </trkpt>
      <trkpt lat="59.370945569741" lon="13.509331691454">
        <ele>63.6</ele>
        <time>2014-09-09T20:25:38Z</time>
      </trkpt>
      <trkpt lat="59.371051852233" lon="13.509128514198">
        <ele>63.6</ele>
        <time>2014-09-09T20:25:43Z</time>
      </trkpt>
      <trkpt lat="59.371185208262" lon="13.508910500979">
        <ele>62.8</ele>
        <time>2014-09-09T20:25:49Z</time>
      </trkpt>
      <trkpt lat="59.371295849342" lon="13.5087478083">
        <ele>62.4</ele>
        <time>2014-09-09T20:25:54Z</time>
      </trkpt>
      <trkpt lat="59.371411603381" lon="13.508586121449">
        <ele>62</ele>
        <time>2014-09-09T20:25:59Z</time>
      </trkpt>
      <trkpt lat="59.371517550597" lon="13.508409430997">
        <ele>61.4</ele>
        <time>2014-09-09T20:26:04Z</time>
      </trkpt>
      <trkpt lat="59.371625760926" lon="13.508242715006">
        <ele>60.6</ele>
        <time>2014-09-09T20:26:09Z</time>
      </trkpt>
      <trkpt lat="59.371734138893" lon="13.508055044265">
        <ele>60.2</ele>
        <time>2014-09-09T20:26:14Z</time>
      </trkpt>
      <trkpt lat="59.37183748772" lon="13.507858404891">
        <ele>59.4</ele>
        <time>2014-09-09T20:26:19Z</time>
      </trkpt>
      <trkpt lat="59.371938405796" lon="13.507671069426">
        <ele>58.6</ele>
        <time>2014-09-09T20:26:24Z</time>
      </trkpt>
      <trkpt lat="59.37205541712" lon="13.50742430629">
        <ele>58</ele>
        <time>2014-09-09T20:26:30Z</time>
      </trkpt>
      <trkpt lat="59.372179133964" lon="13.507184081036">
        <ele>57.8</ele>
        <time>2014-09-09T20:26:36Z</time>
      </trkpt>
      <trkpt lat="59.372304527188" lon="13.506952656777">
        <ele>57.6</ele>
        <time>2014-09-09T20:26:42Z</time>
      </trkpt>
      <trkpt lat="59.372405277626" lon="13.506765405131">
        <ele>57.6</ele>
        <time>2014-09-09T20:26:47Z</time>
      </trkpt>
      <trkpt lat="59.372521618398" lon="13.506528532637">
        <ele>57.6</ele>
        <time>2014-09-09T20:26:53Z</time>
      </trkpt>
      <trkpt lat="59.372597809869" lon="13.506352428918">
        <ele>57.6</ele>
        <time>2014-09-09T20:26:57Z</time>
      </trkpt>
      <trkpt lat="59.372703421809" lon="13.50617372681">
        <ele>57.6</ele>
        <time>2014-09-09T20:27:02Z</time>
      </trkpt>
      <trkpt lat="59.372800065116" lon="13.505967615889">
        <ele>57.4</ele>
        <time>2014-09-09T20:27:07Z</time>
      </trkpt>
      <trkpt lat="59.372929733109" lon="13.505737616553">
        <ele>57.4</ele>
        <time>2014-09-09T20:27:13Z</time>
      </trkpt>
      <trkpt lat="59.37305873055" lon="13.505522536999">
        <ele>57.4</ele>
        <time>2014-09-09T20:27:19Z</time>
      </trkpt>
      <trkpt lat="59.373180687195" lon="13.50530955292">
        <ele>57.4</ele>
        <time>2014-09-09T20:27:25Z</time>
      </trkpt>
      <trkpt lat="59.37329510013" lon="13.505061783956">
        <ele>57.4</ele>
        <time>2014-09-09T20:27:31Z</time>
      </trkpt>
      <trkpt lat="59.373387803944" lon="13.504863719659">
        <ele>57.4</ele>
        <time>2014-09-09T20:27:36Z</time>
      </trkpt>
      <trkpt lat="59.37350213306" lon="13.504643359508">
        <ele>57.4</ele>
        <time>2014-09-09T20:27:42Z</time>
      </trkpt>
      <trkpt lat="59.373598441091" lon="13.504453509473">
        <ele>57</ele>
        <time>2014-09-09T20:27:47Z</time>
      </trkpt>
      <trkpt lat="59.373701454642" lon="13.504180762447">
        <ele>56.2</ele>
        <time>2014-09-09T20:27:53Z</time>
      </trkpt>
      <trkpt lat="59.373788207307" lon="13.503961408124">
        <ele>55.8</ele>
        <time>2014-09-09T20:27:58Z</time>
      </trkpt>
      <trkpt lat="59.373862722398" lon="13.503744568371">
        <ele>55.6</ele>
        <time>2014-09-09T20:28:03Z</time>
      </trkpt>
      <trkpt lat="59.373966657958" lon="13.503491099715">
        <ele>55.6</ele>
        <time>2014-09-09T20:28:09Z</time>
      </trkpt>
      <trkpt lat="59.374062798351" lon="13.503154482611">
        <ele>55.4</ele>
        <time>2014-09-09T20:28:16Z</time>
      </trkpt>
      <trkpt lat="59.374073443364" lon="13.503101844279">
        <ele>55.4</ele>
        <time>2014-09-09T20:28:17Z</time>
      </trkpt>
      <trkpt lat="59.374141001478" lon="13.502770340134">
        <ele>55.4</ele>
        <time>2014-09-09T20:28:23Z</time>
      </trkpt>
      <trkpt lat="59.37418190515" lon="13.502626758187">
        <ele>55.4</ele>
        <time>2014-09-09T20:28:26Z</time>
      </trkpt>
      <trkpt lat="59.374200261511" lon="13.502546962499">
        <ele>55.4</ele>
        <time>2014-09-09T20:28:28Z</time>
      </trkpt>
      <trkpt lat="59.37428248795" lon="13.502313275127">
        <ele>55.4</ele>
        <time>2014-09-09T20:28:33Z</time>
      </trkpt>
      <trkpt lat="59.374353985557" lon="13.501953943074">
        <ele>55.4</ele>
        <time>2014-09-09T20:28:40Z</time>
      </trkpt>
      <trkpt lat="59.374400253645" lon="13.501706341748">
        <ele>55.4</ele>
        <time>2014-09-09T20:28:45Z</time>
      </trkpt>
      <trkpt lat="59.374435373806" lon="13.501382465132">
        <ele>55.4</ele>
        <time>2014-09-09T20:28:51Z</time>
      </trkpt>
      <trkpt lat="59.374473427632" lon="13.501025731468">
        <ele>55.4</ele>
        <time>2014-09-09T20:28:58Z</time>
      </trkpt>
      <trkpt lat="59.374501004083" lon="13.500709650019">
        <ele>55.4</ele>
        <time>2014-09-09T20:29:04Z</time>
      </trkpt>
      <trkpt lat="59.374509805078" lon="13.500600685319">
        <ele>55.4</ele>
        <time>2014-09-09T20:29:06Z</time>
      </trkpt>
      <trkpt lat="59.37453394495" lon="13.50034662993">
        <ele>55.4</ele>
        <time>2014-09-09T20:29:11Z</time>
      </trkpt>
      <trkpt lat="59.374552636587" lon="13.500069859592">
        <ele>55.4</ele>
        <time>2014-09-09T20:29:16Z</time>
      </trkpt>
      <trkpt lat="59.374583649617" lon="13.49967691612">
        <ele>55.4</ele>
        <time>2014-09-09T20:29:23Z</time>
      </trkpt>
      <trkpt lat="59.374599742865" lon="13.499280703707">
        <ele>55.4</ele>
        <time>2014-09-09T20:29:30Z</time>
      </trkpt>
      <trkpt lat="59.374591612422" lon="13.498953139055">
        <ele>55.4</ele>
        <time>2014-09-09T20:29:36Z</time>
      </trkpt>
      <trkpt lat="59.374615584656" lon="13.498681481676">
        <ele>55.4</ele>
        <time>2014-09-09T20:29:41Z</time>
      </trkpt>
      <trkpt lat="59.374643831659" lon="13.498429773219">
        <ele>55.4</ele>
        <time>2014-09-09T20:29:46Z</time>
      </trkpt>
      <trkpt lat="59.374663110029" lon="13.498119810557">
        <ele>55.4</ele>
        <time>2014-09-09T20:29:52Z</time>
      </trkpt>
      <trkpt lat="59.374692865774" lon="13.497812949198">
        <ele>55.4</ele>
        <time>2014-09-09T20:29:58Z</time>
      </trkpt>
      <trkpt lat="59.374719101121" lon="13.497484713994">
        <ele>56.4</ele>
        <time>2014-09-09T20:30:04Z</time>
      </trkpt>
      <trkpt lat="59.374736032559" lon="13.497211715511">
        <ele>56.8</ele>
        <time>2014-09-09T20:30:09Z</time>
      </trkpt>
      <trkpt lat="59.374754221282" lon="13.496876355692">
        <ele>57.2</ele>
        <time>2014-09-09T20:30:15Z</time>
      </trkpt>
      <trkpt lat="59.37476528539" lon="13.496585839038">
        <ele>57.2</ele>
        <time>2014-09-09T20:30:20Z</time>
      </trkpt>
      <trkpt lat="59.374828820192" lon="13.495939929824">
        <ele>57.4</ele>
        <time>2014-09-09T20:30:32Z</time>
      </trkpt>
      <trkpt lat="59.374871986977" lon="13.495570455672">
        <ele>57.4</ele>
        <time>2014-09-09T20:30:39Z</time>
      </trkpt>
      <trkpt lat="59.374909034975" lon="13.495267282349">
        <ele>57.4</ele>
        <time>2014-09-09T20:30:45Z</time>
      </trkpt>
      <trkpt lat="59.374943736041" lon="13.494945165932">
        <ele>57.4</ele>
        <time>2014-09-09T20:30:51Z</time>
      </trkpt>
      <trkpt lat="59.374976844546" lon="13.49467711277">
        <ele>57.4</ele>
        <time>2014-09-09T20:30:56Z</time>
      </trkpt>
      <trkpt lat="59.375020346607" lon="13.494292467379">
        <ele>56.4</ele>
        <time>2014-09-09T20:31:03Z</time>
      </trkpt>
      <trkpt lat="59.375034512018" lon="13.494084009526">
        <ele>56</ele>
        <time>2014-09-09T20:31:07Z</time>
      </trkpt>
      <trkpt lat="59.375058148976" lon="13.493797097089">
        <ele>55.8</ele>
        <time>2014-09-09T20:31:12Z</time>
      </trkpt>
      <trkpt lat="59.375113469516" lon="13.493269456484">
        <ele>55.6</ele>
        <time>2014-09-09T20:31:22Z</time>
      </trkpt>
      <trkpt lat="59.375152948265" lon="13.492898892685">
        <ele>55.4</ele>
        <time>2014-09-09T20:31:29Z</time>
      </trkpt>
      <trkpt lat="59.375182787829" lon="13.492592282783">
        <ele>55.4</ele>
        <time>2014-09-09T20:31:35Z</time>
      </trkpt>
      <trkpt lat="59.375207179158" lon="13.492311070038">
        <ele>55.4</ele>
        <time>2014-09-09T20:31:40Z</time>
      </trkpt>
      <trkpt lat="59.375251770866" lon="13.49192617319">
        <ele>55.4</ele>
        <time>2014-09-09T20:31:47Z</time>
      </trkpt>
      <trkpt lat="59.375321424455" lon="13.491675889656">
        <ele>55.4</ele>
        <time>2014-09-09T20:31:52Z</time>
      </trkpt>
      <trkpt lat="59.375445644213" lon="13.491494086245">
        <ele>55.4</ele>
        <time>2014-09-09T20:31:58Z</time>
      </trkpt>
      <trkpt lat="59.375618227534" lon="13.491449159261">
        <ele>55.4</ele>
        <time>2014-09-09T20:32:04Z</time>
      </trkpt>
      <trkpt lat="59.375747895527" lon="13.491343798778">
        <ele>55.4</ele>
        <time>2014-09-09T20:32:09Z</time>
      </trkpt>
      <trkpt lat="59.375878988443" lon="13.491151434173">
        <ele>55.4</ele>
        <time>2014-09-09T20:32:15Z</time>
      </trkpt>
      <trkpt lat="59.376008488798" lon="13.490930738746">
        <ele>55.4</ele>
        <time>2014-09-09T20:32:21Z</time>
      </trkpt>
      <trkpt lat="59.37610722758" lon="13.490811631947">
        <ele>55.4</ele>
        <time>2014-09-09T20:32:25Z</time>
      </trkpt>
      <trkpt lat="59.376224155085" lon="13.490662517946">
        <ele>56</ele>
        <time>2014-09-09T20:32:30Z</time>
      </trkpt>
      <trkpt lat="59.376348961576" lon="13.490520947655">
        <ele>56.6</ele>
        <time>2014-09-09T20:32:35Z</time>
      </trkpt>
      <trkpt lat="59.376487682021" lon="13.490333528371">
        <ele>57</ele>
        <time>2014-09-09T20:32:41Z</time>
      </trkpt>
      <trkpt lat="59.376647776311" lon="13.490207380776">
        <ele>57.2</ele>
        <time>2014-09-09T20:32:47Z</time>
      </trkpt>
      <trkpt lat="59.376781802892" lon="13.490132698047">
        <ele>57.2</ele>
        <time>2014-09-09T20:32:52Z</time>
      </trkpt>
      <trkpt lat="59.37694960853" lon="13.490078215697">
        <ele>57.4</ele>
        <time>2014-09-09T20:32:58Z</time>
      </trkpt>
      <trkpt lat="59.377149600664" lon="13.490064217924">
        <ele>57.4</ele>
        <time>2014-09-09T20:33:05Z</time>
      </trkpt>
      <trkpt lat="59.37732595584" lon="13.490039072224">
        <ele>57.4</ele>
        <time>2014-09-09T20:33:11Z</time>
      </trkpt>
      <trkpt lat="59.377488229424" lon="13.490024236261">
        <ele>57.4</ele>
        <time>2014-09-09T20:33:17Z</time>
      </trkpt>
      <trkpt lat="59.377650503008" lon="13.490037060568">
        <ele>57.4</ele>
        <time>2014-09-09T20:33:22Z</time>
      </trkpt>
      <trkpt lat="59.377855859558" lon="13.490056925671">
        <ele>58.4</ele>
        <time>2014-09-09T20:33:29Z</time>
      </trkpt>
      <trkpt lat="59.378019474246" lon="13.490081484638">
        <ele>59</ele>
        <time>2014-09-09T20:33:35Z</time>
      </trkpt>
      <trkpt lat="59.378209994833" lon="13.490094476583">
        <ele>59.2</ele>
        <time>2014-09-09T20:33:41Z</time>
      </trkpt>
      <trkpt lat="59.378364892345" lon="13.490151473503">
        <ele>60.2</ele>
        <time>2014-09-09T20:33:47Z</time>
      </trkpt>
      <trkpt lat="59.378417363039" lon="13.490186677483">
        <ele>60.6</ele>
        <time>2014-09-09T20:33:50Z</time>
      </trkpt>
      <trkpt lat="59.378560861167" lon="13.490262198402">
        <ele>61</ele>
        <time>2014-09-09T20:33:55Z</time>
      </trkpt>
      <trkpt lat="59.378626491444" lon="13.490308885585">
        <ele>61</ele>
        <time>2014-09-09T20:33:57Z</time>
      </trkpt>
      <trkpt lat="59.378820280972" lon="13.490479373431">
        <ele>61.4</ele>
        <time>2014-09-09T20:34:04Z</time>
      </trkpt>
      <trkpt lat="59.378995546501" lon="13.490612980917">
        <ele>61.4</ele>
        <time>2014-09-09T20:34:11Z</time>
      </trkpt>
      <trkpt lat="59.379122699924" lon="13.490652459666">
        <ele>61.4</ele>
        <time>2014-09-09T20:34:16Z</time>
      </trkpt>
      <trkpt lat="59.379303078412" lon="13.490790761016">
        <ele>61.4</ele>
        <time>2014-09-09T20:34:23Z</time>
      </trkpt>
      <trkpt lat="59.379365188291" lon="13.490797885631">
        <ele>61.6</ele>
        <time>2014-09-09T20:34:25Z</time>
      </trkpt>
      <trkpt lat="59.3794499293" lon="13.490790509559">
        <ele>61.6</ele>
        <time>2014-09-09T20:34:28Z</time>
      </trkpt>
      <trkpt lat="59.379476164647" lon="13.490768968076">
        <ele>61.6</ele>
        <time>2014-09-09T20:34:29Z</time>
      </trkpt>
      <trkpt lat="59.379609939771" lon="13.490584314819">
        <ele>61.6</ele>
        <time>2014-09-09T20:34:35Z</time>
      </trkpt>
      <trkpt lat="59.379733572796" lon="13.490447438392">
        <ele>61.6</ele>
        <time>2014-09-09T20:34:40Z</time>
      </trkpt>
      <trkpt lat="59.379836502528" lon="13.490255241425">
        <ele>61.6</ele>
        <time>2014-09-09T20:34:45Z</time>
      </trkpt>
      <trkpt lat="59.379893667086" lon="13.49005533311">
        <ele>61.6</ele>
        <time>2014-09-09T20:34:49Z</time>
      </trkpt>
      <trkpt lat="59.37990841923" lon="13.490003281511">
        <ele>61.6</ele>
        <time>2014-09-09T20:34:50Z</time>
      </trkpt>
      <trkpt lat="59.379971199661" lon="13.489655684118">
        <ele>61.6</ele>
        <time>2014-09-09T20:34:57Z</time>
      </trkpt>
      <trkpt lat="59.380004727261" lon="13.489423170212">
        <ele>61.6</ele>
        <time>2014-09-09T20:35:02Z</time>
      </trkpt>
      <trkpt lat="59.380023754174" lon="13.489126031857">
        <ele>61.6</ele>
        <time>2014-09-09T20:35:08Z</time>
      </trkpt>
      <trkpt lat="59.38008108637" lon="13.488880945101">
        <ele>61.6</ele>
        <time>2014-09-09T20:35:13Z</time>
      </trkpt>
      <trkpt lat="59.38020849125" lon="13.488786816364">
        <ele>61.6</ele>
        <time>2014-09-09T20:35:18Z</time>
      </trkpt>
      <trkpt lat="59.380389121195" lon="13.48875362404">
        <ele>61.6</ele>
        <time>2014-09-09T20:35:24Z</time>
      </trkpt>
      <trkpt lat="59.380594226288" lon="13.488738117525">
        <ele>61.6</ele>
        <time>2014-09-09T20:35:31Z</time>
      </trkpt>
      <trkpt lat="59.380828332755" lon="13.488733758937">
        <ele>61.6</ele>
        <time>2014-09-09T20:35:39Z</time>
      </trkpt>
      <trkpt lat="59.381030588002" lon="13.488730741453">
        <ele>61.6</ele>
        <time>2014-09-09T20:35:46Z</time>
      </trkpt>
      <trkpt lat="59.38116235147" lon="13.488716911318">
        <ele>61.6</ele>
        <time>2014-09-09T20:35:51Z</time>
      </trkpt>
      <trkpt lat="59.381353710247" lon="13.488726382865">
        <ele>61.6</ele>
        <time>2014-09-09T20:35:58Z</time>
      </trkpt>
      <trkpt lat="59.381478097643" lon="13.488797629015">
        <ele>61.6</ele>
        <time>2014-09-09T20:36:03Z</time>
      </trkpt>
      <trkpt lat="59.381610028749" lon="13.488776506627">
        <ele>61.6</ele>
        <time>2014-09-09T20:36:08Z</time>
      </trkpt>
      <trkpt lat="59.381743636235" lon="13.488721437544">
        <ele>61.6</ele>
        <time>2014-09-09T20:36:13Z</time>
      </trkpt>
      <trkpt lat="59.381919320859" lon="13.488703835554">
        <ele>61.6</ele>
        <time>2014-09-09T20:36:19Z</time>
      </trkpt>
      <trkpt lat="59.382125683237" lon="13.488712720368">
        <ele>61</ele>
        <time>2014-09-09T20:36:26Z</time>
      </trkpt>
      <trkpt lat="59.382271193021" lon="13.488720431716">
        <ele>60.4</ele>
        <time>2014-09-09T20:36:31Z</time>
      </trkpt>
      <trkpt lat="59.382444446894" lon="13.488732166376">
        <ele>60</ele>
        <time>2014-09-09T20:36:37Z</time>
      </trkpt>
      <trkpt lat="59.382611414342" lon="13.488714061472">
        <ele>59.8</ele>
        <time>2014-09-09T20:36:43Z</time>
      </trkpt>
      <trkpt lat="59.382756421212" lon="13.488693358179">
        <ele>59.6</ele>
        <time>2014-09-09T20:36:48Z</time>
      </trkpt>
      <trkpt lat="59.382952306215" lon="13.488668296298">
        <ele>59.6</ele>
        <time>2014-09-09T20:36:55Z</time>
      </trkpt>
      <trkpt lat="59.383011901524" lon="13.48866980504">
        <ele>59.6</ele>
        <time>2014-09-09T20:36:57Z</time>
      </trkpt>
      <trkpt lat="59.38314886177" lon="13.488839873791">
        <ele>59.6</ele>
        <time>2014-09-09T20:37:03Z</time>
      </trkpt>
      <trkpt lat="59.383248941656" lon="13.488997034416">
        <ele>59.6</ele>
        <time>2014-09-09T20:37:08Z</time>
      </trkpt>
      <trkpt lat="59.38340953886" lon="13.489203229156">
        <ele>59.6</ele>
        <time>2014-09-09T20:37:15Z</time>
      </trkpt>
      <trkpt lat="59.383540128862" lon="13.489397689236">
        <ele>59.6</ele>
        <time>2014-09-09T20:37:21Z</time>
      </trkpt>
      <trkpt lat="59.383666779371" lon="13.489551664739">
        <ele>59.6</ele>
        <time>2014-09-09T20:37:27Z</time>
      </trkpt>
      <trkpt lat="59.383805751273" lon="13.489647553675">
        <ele>59.6</ele>
        <time>2014-09-09T20:37:32Z</time>
      </trkpt>
      <trkpt lat="59.383983950467" lon="13.489701197835">
        <ele>59.6</ele>
        <time>2014-09-09T20:37:38Z</time>
      </trkpt>
      <trkpt lat="59.384152426657" lon="13.489762720981">
        <ele>59.6</ele>
        <time>2014-09-09T20:37:44Z</time>
      </trkpt>
      <trkpt lat="59.384336996095" lon="13.48979800878">
        <ele>59.6</ele>
        <time>2014-09-09T20:37:50Z</time>
      </trkpt>
      <trkpt lat="59.384489295218" lon="13.489801026264">
        <ele>59.6</ele>
        <time>2014-09-09T20:37:55Z</time>
      </trkpt>
      <trkpt lat="59.384637654848" lon="13.48984830018">
        <ele>59.6</ele>
        <time>2014-09-09T20:38:00Z</time>
      </trkpt>
      <trkpt lat="59.384809483798" lon="13.489901860521">
        <ele>59.6</ele>
        <time>2014-09-09T20:38:06Z</time>
      </trkpt>
      <trkpt lat="59.38498030692" lon="13.489992301222">
        <ele>59.6</ele>
        <time>2014-09-09T20:38:12Z</time>
      </trkpt>
      <trkpt lat="59.385175353733" lon="13.490118281179">
        <ele>59.6</ele>
        <time>2014-09-09T20:38:19Z</time>
      </trkpt>
      <trkpt lat="59.385490261716" lon="13.490450288238">
        <ele>59.6</ele>
        <time>2014-09-09T20:38:31Z</time>
      </trkpt>
    </trkseg>
  </trk>
</gpx>